createdAt,value
2018-08-17T00:00:33.811Z,23.33
2018-08-17T00:01:33.851Z,23.32
2018-08-17T00:02:33.664Z,23.32
2018-08-17T00:03:33.749Z,23.31
2018-08-17T00:04:33.744Z,23.31
2018-08-17T00:05:33.615Z,23.3
2018-08-17T00:06:33.821Z,23.32
2018-08-17T00:07:33.596Z,23.31
2018-08-17T00:08:33.847Z,23.3
2018-08-17T00:09:33.668Z,23.3
2018-08-17T00:10:33.810Z,23.31
2018-08-17T00:11:33.724Z,23.32
2018-08-17T00:12:33.613Z,23.31
2018-08-17T00:13:33.519Z,23.31
2018-08-17T00:14:33.819Z,23.31
2018-08-17T00:15:33.662Z,23.3
2018-08-17T00:16:33.876Z,23.32
2018-08-17T00:17:33.712Z,23.3
2018-08-17T00:18:33.704Z,23.3
2018-08-17T00:19:33.632Z,23.32
2018-08-17T00:20:33.619Z,23.32
2018-08-17T00:21:33.857Z,23.31
2018-08-17T00:22:33.673Z,23.32
2018-08-17T00:23:33.832Z,23.32
2018-08-17T00:24:33.794Z,23.31
2018-08-17T00:25:33.722Z,23.32
2018-08-17T00:26:33.844Z,23.32
2018-08-17T00:27:33.746Z,23.31
2018-08-17T00:28:33.673Z,23.3
2018-08-17T00:29:33.764Z,23.32
2018-08-17T00:30:33.738Z,23.3
2018-08-17T00:31:33.639Z,23.3
2018-08-17T00:32:33.605Z,23.31
2018-08-17T00:33:33.866Z,23.31
2018-08-17T00:34:33.973Z,23.3
2018-08-17T00:35:33.809Z,23.31
2018-08-17T00:36:33.915Z,23.32
2018-08-17T00:37:33.629Z,23.31
2018-08-17T00:38:33.905Z,23.31
2018-08-17T00:39:33.700Z,23.31
2018-08-17T00:40:33.694Z,23.31
2018-08-17T00:41:33.619Z,23.3
2018-08-17T00:42:33.654Z,23.3
2018-08-17T00:43:33.684Z,23.32
2018-08-17T00:44:33.600Z,23.3
2018-08-17T00:45:33.635Z,23.29
2018-08-17T00:46:33.850Z,23.31
2018-08-17T00:47:33.704Z,23.3
2018-08-17T00:48:33.684Z,23.28
2018-08-17T00:49:33.652Z,23.3
2018-08-17T00:50:33.772Z,23.3
2018-08-17T00:51:33.604Z,23.29
2018-08-17T00:52:33.741Z,23.3
2018-08-17T00:53:33.800Z,23.31
2018-08-17T00:54:33.630Z,23.3
2018-08-17T00:55:33.692Z,23.3
2018-08-17T00:56:33.755Z,23.3
2018-08-17T00:57:33.693Z,23.3
2018-08-17T00:58:33.727Z,23.3
2018-08-17T00:59:33.796Z,23.29
2018-08-17T01:00:33.689Z,23.31
2018-08-17T01:01:33.538Z,23.28
2018-08-17T01:02:33.579Z,23.3
2018-08-17T01:03:33.757Z,23.29
2018-08-17T01:04:33.834Z,23.3
2018-08-17T01:05:33.798Z,23.3
2018-08-17T01:06:33.886Z,23.3
2018-08-17T01:07:33.584Z,23.29
2018-08-17T01:08:33.694Z,23.29
2018-08-17T01:09:33.794Z,23.29
2018-08-17T01:10:33.868Z,23.29
2018-08-17T01:11:33.700Z,23.29
2018-08-17T01:12:33.599Z,23.28
2018-08-17T01:13:33.625Z,23.29
2018-08-17T01:14:33.825Z,23.29
2018-08-17T01:15:33.951Z,23.29
2018-08-17T01:16:33.597Z,23.28
2018-08-17T01:17:33.843Z,23.29
2018-08-17T01:18:33.748Z,23.3
2018-08-17T01:19:33.593Z,23.29
2018-08-17T01:20:33.545Z,23.3
2018-08-17T01:21:33.759Z,23.3
2018-08-17T01:22:33.690Z,23.29
2018-08-17T01:23:33.574Z,23.29
2018-08-17T01:24:33.735Z,23.29
2018-08-17T01:25:33.549Z,23.29
2018-08-17T01:26:33.710Z,23.29
2018-08-17T01:27:33.638Z,23.29
2018-08-17T01:28:33.642Z,23.29
2018-08-17T01:29:33.628Z,23.28
2018-08-17T01:30:33.614Z,23.29
2018-08-17T01:31:33.776Z,23.28
2018-08-17T01:32:33.605Z,23.28
2018-08-17T01:33:33.611Z,23.27
2018-08-17T01:34:33.626Z,23.3
2018-08-17T01:35:33.566Z,23.29
2018-08-17T01:36:33.745Z,23.28
2018-08-17T01:37:33.688Z,23.27
2018-08-17T01:38:33.888Z,23.28
2018-08-17T01:39:33.633Z,23.29
2018-08-17T01:40:33.777Z,23.28
2018-08-17T01:41:33.638Z,23.28
2018-08-17T01:42:33.695Z,23.29
2018-08-17T01:43:33.587Z,23.29
2018-08-17T01:44:33.551Z,23.28
2018-08-17T01:45:33.768Z,23.28
2018-08-17T01:46:33.995Z,23.27
2018-08-17T01:47:33.589Z,23.29
2018-08-17T01:48:33.669Z,23.27
2018-08-17T01:49:33.737Z,23.28
2018-08-17T01:50:33.703Z,23.29
2018-08-17T01:51:34.103Z,23.28
2018-08-17T01:52:33.608Z,23.28
2018-08-17T01:53:33.596Z,23.28
2018-08-17T01:54:33.824Z,23.28
2018-08-17T01:55:34.198Z,23.27
2018-08-17T01:56:33.876Z,23.27
2018-08-17T01:57:33.765Z,23.29
2018-08-17T01:58:33.895Z,23.26
2018-08-17T01:59:33.736Z,23.25
2018-08-17T02:00:33.662Z,23.26
2018-08-17T02:01:33.660Z,23.25
2018-08-17T02:02:33.663Z,23.26
2018-08-17T02:03:33.908Z,23.28
2018-08-17T02:04:33.642Z,23.26
2018-08-17T02:05:33.718Z,23.26
2018-08-17T02:06:33.560Z,23.27
2018-08-17T02:07:33.734Z,23.26
2018-08-17T02:08:33.871Z,23.26
2018-08-17T02:09:33.619Z,23.27
2018-08-17T02:10:33.804Z,23.26
2018-08-17T02:11:33.922Z,23.27
2018-08-17T02:12:33.622Z,23.27
2018-08-17T02:13:33.568Z,23.25
2018-08-17T02:14:33.839Z,23.27
2018-08-17T02:15:33.845Z,23.26
2018-08-17T02:16:33.733Z,23.25
2018-08-17T02:17:33.567Z,23.25
2018-08-17T02:18:33.608Z,23.27
2018-08-17T02:19:33.796Z,23.26
2018-08-17T02:20:33.625Z,23.25
2018-08-17T02:21:33.608Z,23.27
2018-08-17T02:22:33.957Z,23.27
2018-08-17T02:23:33.533Z,23.25
2018-08-17T02:24:33.976Z,23.26
2018-08-17T02:25:33.666Z,23.28
2018-08-17T02:26:33.667Z,23.26
2018-08-17T02:27:33.621Z,23.26
2018-08-17T02:28:33.670Z,23.28
2018-08-17T02:29:33.673Z,23.27
2018-08-17T02:30:33.726Z,23.26
2018-08-17T02:31:33.869Z,23.25
2018-08-17T02:32:33.618Z,23.24
2018-08-17T02:33:33.799Z,23.26
2018-08-17T02:34:33.685Z,23.26
2018-08-17T02:35:33.504Z,23.26
2018-08-17T02:36:33.781Z,23.27
2018-08-17T02:37:33.838Z,23.26
2018-08-17T02:38:33.712Z,23.26
2018-08-17T02:39:33.560Z,23.25
2018-08-17T02:40:33.587Z,23.26
2018-08-17T02:41:33.624Z,23.25
2018-08-17T02:42:33.811Z,23.26
2018-08-17T02:43:33.533Z,23.24
2018-08-17T02:44:33.714Z,23.24
2018-08-17T02:45:33.547Z,23.25
2018-08-17T02:46:33.579Z,23.24
2018-08-17T02:47:33.614Z,23.25
2018-08-17T02:48:33.538Z,23.24
2018-08-17T02:49:33.650Z,23.24
2018-08-17T02:50:33.529Z,23.25
2018-08-17T02:51:33.585Z,23.24
2018-08-17T02:52:33.604Z,23.25
2018-08-17T02:53:33.684Z,23.23
2018-08-17T02:54:33.597Z,23.24
2018-08-17T02:55:33.742Z,23.25
2018-08-17T02:56:33.749Z,23.24
2018-08-17T02:57:33.585Z,23.26
2018-08-17T02:58:33.633Z,23.25
2018-08-17T02:59:33.634Z,23.25
2018-08-17T03:00:33.615Z,23.26
2018-08-17T03:01:33.828Z,23.27
2018-08-17T03:02:33.808Z,23.25
2018-08-17T03:03:33.622Z,23.25
2018-08-17T03:04:33.812Z,23.24
2018-08-17T03:05:33.708Z,23.25
2018-08-17T03:06:33.778Z,23.24
2018-08-17T03:07:33.647Z,23.25
2018-08-17T03:08:34.091Z,23.24
2018-08-17T03:09:33.784Z,23.25
2018-08-17T03:10:33.717Z,23.23
2018-08-17T03:11:33.695Z,23.24
2018-08-17T03:12:33.765Z,23.24
2018-08-17T03:13:33.609Z,23.24
2018-08-17T03:14:33.897Z,23.25
2018-08-17T03:15:33.639Z,23.25
2018-08-17T03:16:33.703Z,23.24
2018-08-17T03:17:34.066Z,23.24
2018-08-17T03:18:33.880Z,23.25
2018-08-17T03:19:33.650Z,23.23
2018-08-17T03:20:33.863Z,23.25
2018-08-17T03:21:33.601Z,23.25
2018-08-17T03:22:34.050Z,23.25
2018-08-17T03:23:33.499Z,23.24
2018-08-17T03:24:33.787Z,23.23
2018-08-17T03:25:33.653Z,23.23
2018-08-17T03:26:33.658Z,23.24
2018-08-17T03:27:33.657Z,23.24
2018-08-17T03:28:33.771Z,23.24
2018-08-17T03:29:33.854Z,23.24
2018-08-17T03:30:33.745Z,23.24
2018-08-17T03:31:33.652Z,23.22
2018-08-17T03:32:33.767Z,23.23
2018-08-17T03:33:34.009Z,23.22
2018-08-17T03:34:33.708Z,23.22
2018-08-17T03:35:33.893Z,23.23
2018-08-17T03:36:33.710Z,23.22
2018-08-17T03:37:33.610Z,23.24
2018-08-17T03:38:33.724Z,23.23
2018-08-17T03:39:33.691Z,23.21
2018-08-17T03:40:33.763Z,23.23
2018-08-17T03:41:33.582Z,23.21
2018-08-17T03:42:33.653Z,23.22
2018-08-17T03:43:33.617Z,23.23
2018-08-17T03:44:33.653Z,23.22
2018-08-17T03:45:33.653Z,23.21
2018-08-17T03:46:33.596Z,23.22
2018-08-17T03:47:33.717Z,23.21
2018-08-17T03:48:33.621Z,23.23
2018-08-17T03:49:33.811Z,23.21
2018-08-17T03:50:33.551Z,23.2
2018-08-17T03:51:33.543Z,23.23
2018-08-17T03:52:33.523Z,23.22
2018-08-17T03:53:33.728Z,23.23
2018-08-17T03:54:33.643Z,23.24
2018-08-17T03:55:33.725Z,23.23
2018-08-17T03:56:33.609Z,23.24
2018-08-17T03:57:33.521Z,23.22
2018-08-17T03:58:33.737Z,23.21
2018-08-17T03:59:33.566Z,23.21
2018-08-17T04:00:33.802Z,23.21
2018-08-17T04:01:33.586Z,23.22
2018-08-17T04:02:33.595Z,23.2
2018-08-17T04:03:33.558Z,23.23
2018-08-17T04:04:33.696Z,23.23
2018-08-17T04:05:33.771Z,23.22
2018-08-17T04:06:33.755Z,23.23
2018-08-17T04:07:33.767Z,23.22
2018-08-17T04:08:33.555Z,23.22
2018-08-17T04:09:33.527Z,23.22
2018-08-17T04:10:33.735Z,23.24
2018-08-17T04:11:33.845Z,23.24
2018-08-17T04:12:33.693Z,23.22
2018-08-17T04:13:33.793Z,23.22
2018-08-17T04:14:33.667Z,23.23
2018-08-17T04:15:33.811Z,23.22
2018-08-17T04:16:33.717Z,23.21
2018-08-17T04:17:33.581Z,23.2
2018-08-17T04:18:33.586Z,23.21
2018-08-17T04:19:33.708Z,23.2
2018-08-17T04:20:33.597Z,23.2
2018-08-17T04:21:33.895Z,23.2
2018-08-17T04:22:33.634Z,23.22
2018-08-17T04:23:33.569Z,23.21
2018-08-17T04:24:34.022Z,23.2
2018-08-17T04:25:33.891Z,23.21
2018-08-17T04:26:33.564Z,23.2
2018-08-17T04:27:33.605Z,23.21
2018-08-17T04:28:33.868Z,23.22
2018-08-17T04:29:33.748Z,23.22
2018-08-17T04:30:33.633Z,23.21
2018-08-17T04:31:33.676Z,23.21
2018-08-17T04:32:33.680Z,23.21
2018-08-17T04:33:33.864Z,23.2
2018-08-17T04:34:33.807Z,23.2
2018-08-17T04:35:33.740Z,23.21
2018-08-17T04:36:33.928Z,23.22
2018-08-17T04:37:33.653Z,23.2
2018-08-17T04:38:33.658Z,23.2
2018-08-17T04:39:33.711Z,23.2
2018-08-17T04:40:33.592Z,23.21
2018-08-17T04:41:33.551Z,23.19
2018-08-17T04:42:33.807Z,23.19
2018-08-17T04:43:33.848Z,23.21
2018-08-17T04:44:33.749Z,23.21
2018-08-17T04:45:33.689Z,23.2
2018-08-17T04:46:33.442Z,23.21
2018-08-17T04:47:33.793Z,23.2
2018-08-17T04:48:33.954Z,23.21
2018-08-17T04:49:33.677Z,23.19
2018-08-17T04:50:33.790Z,23.2
2018-08-17T04:51:33.694Z,23.2
2018-08-17T04:52:33.632Z,23.19
2018-08-17T04:53:33.809Z,23.19
2018-08-17T04:54:33.728Z,23.21
2018-08-17T04:55:33.567Z,23.2
2018-08-17T04:56:33.965Z,23.21
2018-08-17T04:57:33.754Z,23.19
2018-08-17T04:58:33.768Z,23.2
2018-08-17T04:59:33.753Z,23.2
2018-08-17T05:00:33.679Z,23.19
2018-08-17T05:01:33.758Z,23.2
2018-08-17T05:02:33.806Z,23.21
2018-08-17T05:03:33.939Z,23.2
2018-08-17T05:04:33.537Z,23.18
2018-08-17T05:05:33.793Z,23.19
2018-08-17T05:06:33.615Z,23.21
2018-08-17T05:07:33.624Z,23.21
2018-08-17T05:08:33.648Z,23.2
2018-08-17T05:09:33.571Z,23.2
2018-08-17T05:10:33.662Z,23.2
2018-08-17T05:11:33.718Z,23.2
2018-08-17T05:12:33.594Z,23.19
2018-08-17T05:13:33.469Z,23.19
2018-08-17T05:14:33.654Z,23.18
2018-08-17T05:15:33.731Z,23.18
2018-08-17T05:16:33.495Z,23.2
2018-08-17T05:17:33.732Z,23.19
2018-08-17T05:18:33.561Z,23.18
2018-08-17T05:19:33.722Z,23.19
2018-08-17T05:20:33.471Z,23.18
2018-08-17T05:21:33.769Z,23.18
2018-08-17T05:22:33.588Z,23.2
2018-08-17T05:23:33.547Z,23.19
2018-08-17T05:24:33.575Z,23.19
2018-08-17T05:25:33.499Z,23.18
2018-08-17T05:26:33.949Z,23.18
2018-08-17T05:27:33.749Z,23.2
2018-08-17T05:28:33.600Z,23.19
2018-08-17T05:29:33.633Z,23.17
2018-08-17T05:30:33.653Z,23.18
2018-08-17T05:31:33.740Z,23.18
2018-08-17T05:32:33.605Z,23.17
2018-08-17T05:33:33.679Z,23.18
2018-08-17T05:34:33.657Z,23.18
2018-08-17T05:35:33.624Z,23.17
2018-08-17T05:36:33.658Z,23.18
2018-08-17T05:37:33.664Z,23.17
2018-08-17T05:38:33.661Z,23.18
2018-08-17T05:39:33.707Z,23.17
2018-08-17T05:40:33.604Z,23.17
2018-08-17T05:41:33.566Z,23.17
2018-08-17T05:42:33.695Z,23.17
2018-08-17T05:43:33.645Z,23.17
2018-08-17T05:44:33.754Z,23.17
2018-08-17T05:45:33.724Z,23.17
2018-08-17T05:46:33.771Z,23.18
2018-08-17T05:47:33.558Z,23.17
2018-08-17T05:48:33.784Z,23.17
2018-08-17T05:49:33.639Z,23.18
2018-08-17T05:50:33.733Z,23.17
2018-08-17T05:51:33.655Z,23.18
2018-08-17T05:52:33.592Z,23.17
2018-08-17T05:53:33.691Z,23.18
2018-08-17T05:54:33.608Z,23.17
2018-08-17T05:55:33.615Z,23.18
2018-08-17T05:56:33.858Z,23.17
2018-08-17T05:57:33.652Z,23.17
2018-08-17T05:58:33.634Z,23.17
2018-08-17T05:59:33.531Z,23.18
2018-08-17T06:00:33.458Z,23.16
2018-08-17T06:01:33.745Z,23.18
2018-08-17T06:02:33.679Z,23.18
2018-08-17T06:03:33.827Z,23.16
2018-08-17T06:04:33.732Z,23.12
2018-08-17T06:05:33.689Z,23.05
2018-08-17T06:06:33.659Z,23.04
2018-08-17T06:07:33.666Z,23.03
2018-08-17T06:08:33.752Z,23.03
2018-08-17T06:09:33.848Z,23.04
2018-08-17T06:10:33.666Z,23.04
2018-08-17T06:11:33.719Z,23.03
2018-08-17T06:12:33.577Z,23.01
2018-08-17T06:13:33.580Z,23.03
2018-08-17T06:14:33.593Z,22.97
2018-08-17T06:15:33.625Z,22.95
2018-08-17T06:16:33.694Z,22.95
2018-08-17T06:17:33.813Z,22.97
2018-08-17T06:18:33.711Z,22.99
2018-08-17T06:19:33.620Z,23
2018-08-17T06:20:34.670Z,22.97
2018-08-17T06:21:33.703Z,22.97
2018-08-17T06:22:33.730Z,22.98
2018-08-17T06:23:33.573Z,22.96
2018-08-17T06:24:33.526Z,22.96
2018-08-17T06:25:33.647Z,22.97
2018-08-17T06:26:33.558Z,22.97
2018-08-17T06:27:33.717Z,22.98
2018-08-17T06:28:33.582Z,22.99
2018-08-17T06:29:33.407Z,23.01
2018-08-17T06:30:33.592Z,22.99
2018-08-17T06:31:33.640Z,23
2018-08-17T06:32:33.668Z,23.02
2018-08-17T06:33:33.517Z,23.03
2018-08-17T06:34:33.646Z,23.05
2018-08-17T06:35:33.579Z,23.06
2018-08-17T06:36:33.642Z,23.05
2018-08-17T06:37:33.588Z,23.05
2018-08-17T06:38:33.419Z,23.05
2018-08-17T06:39:33.552Z,23.06
2018-08-17T06:40:33.600Z,23.07
2018-08-17T06:41:33.575Z,23.06
2018-08-17T06:42:34.238Z,23.08
2018-08-17T06:43:33.546Z,23.09
2018-08-17T06:44:33.662Z,23.1
2018-08-17T06:45:33.667Z,23.09
2018-08-17T06:46:33.488Z,23.1
2018-08-17T06:47:33.631Z,23.1
2018-08-17T06:48:33.488Z,23.11
2018-08-17T06:49:33.487Z,23.11
2018-08-17T06:50:33.608Z,23.11
2018-08-17T06:51:33.645Z,23.11
2018-08-17T06:52:33.538Z,23.16
2018-08-17T06:53:33.632Z,23.13
2018-08-17T06:54:33.607Z,23.14
2018-08-17T06:55:33.620Z,23.14
2018-08-17T06:56:33.761Z,23.14
2018-08-17T06:57:33.971Z,23.14
2018-08-17T06:58:33.533Z,23.13
2018-08-17T06:59:33.459Z,23.13
2018-08-17T07:00:33.607Z,23.14
2018-08-17T07:01:33.590Z,23.14
2018-08-17T07:02:33.731Z,23.14
2018-08-17T07:03:33.704Z,23.13
2018-08-17T07:04:33.889Z,23.13
2018-08-17T07:05:33.678Z,23.13
2018-08-17T07:06:33.735Z,23.13
2018-08-17T07:07:34.020Z,23.14
2018-08-17T07:08:34.039Z,23.13
2018-08-17T07:09:33.651Z,23.13
2018-08-17T07:10:33.991Z,23.14
2018-08-17T07:11:33.573Z,23.14
2018-08-17T07:12:33.600Z,23.13
2018-08-17T07:13:34.124Z,23.14
2018-08-17T07:14:33.736Z,23.13
2018-08-17T07:15:33.755Z,23.14
2018-08-17T07:16:33.635Z,23.15
2018-08-17T07:17:34.096Z,23.14
2018-08-17T07:18:33.978Z,23.14
2018-08-17T07:19:33.840Z,23.14
2018-08-17T07:20:33.749Z,23.14
2018-08-17T07:21:33.654Z,23.15
2018-08-17T07:22:34.125Z,23.14
2018-08-17T07:23:33.665Z,23.15
2018-08-17T07:24:33.758Z,23.14
2018-08-17T07:25:33.785Z,23.14
2018-08-17T07:26:33.668Z,23.14
2018-08-17T07:27:33.486Z,23.14
2018-08-17T07:28:33.592Z,23.14
2018-08-17T07:29:33.599Z,23.14
2018-08-17T07:30:33.692Z,23.15
2018-08-17T07:31:33.732Z,23.14
2018-08-17T07:32:34.099Z,23.14
2018-08-17T07:33:33.624Z,23.14
2018-08-17T07:34:33.563Z,23.14
2018-08-17T07:35:33.813Z,23.16
2018-08-17T07:36:33.681Z,23.16
2018-08-17T07:37:33.627Z,23.15
2018-08-17T07:38:33.691Z,23.16
2018-08-17T07:39:33.493Z,23.15
2018-08-17T07:40:33.615Z,23.15
2018-08-17T07:41:33.568Z,23.16
2018-08-17T07:42:33.490Z,23.15
2018-08-17T07:43:33.499Z,23.16
2018-08-17T07:44:33.573Z,23.15
2018-08-17T07:45:33.537Z,23.14
2018-08-17T07:46:33.623Z,23.18
2018-08-17T07:47:33.563Z,23.16
2018-08-17T07:48:33.608Z,23.17
2018-08-17T07:49:33.571Z,23.16
2018-08-17T07:50:33.730Z,23.15
2018-08-17T07:51:33.596Z,23.16
2018-08-17T07:52:33.459Z,23.16
2018-08-17T07:53:33.462Z,23.15
2018-08-17T07:54:33.542Z,23.15
2018-08-17T07:55:33.778Z,23.15
2018-08-17T07:56:33.654Z,23.15
2018-08-17T07:57:33.674Z,23.15
2018-08-17T07:58:33.629Z,23.15
2018-08-17T07:59:33.705Z,23.14
2018-08-17T08:00:33.639Z,23.15
2018-08-17T08:01:33.735Z,23.17
2018-08-17T08:02:33.657Z,23.17
2018-08-17T08:03:33.594Z,23.18
2018-08-17T08:04:33.705Z,23.18
2018-08-17T08:05:33.690Z,23.17
2018-08-17T08:06:33.770Z,23.17
2018-08-17T08:07:33.623Z,23.17
2018-08-17T08:08:33.746Z,23.17
2018-08-17T08:09:33.614Z,23.16
2018-08-17T08:10:33.472Z,23.17
2018-08-17T08:11:33.648Z,23.17
2018-08-17T08:12:33.728Z,23.16
2018-08-17T08:13:33.645Z,23.16
2018-08-17T08:14:33.625Z,23.16
2018-08-17T08:15:33.635Z,23.16
2018-08-17T08:16:33.607Z,23.15
2018-08-17T08:17:33.498Z,23.16
2018-08-17T08:18:33.690Z,23.15
2018-08-17T08:19:33.646Z,23.16
2018-08-17T08:20:33.529Z,23.16
2018-08-17T08:21:33.641Z,23.16
2018-08-17T08:22:33.777Z,23.15
2018-08-17T08:23:33.572Z,23.16
2018-08-17T08:24:33.696Z,23.16
2018-08-17T08:25:33.636Z,23.16
2018-08-17T08:26:33.397Z,23.15
2018-08-17T08:27:33.681Z,23.15
2018-08-17T08:28:33.537Z,23.15
2018-08-17T08:29:33.695Z,23.15
2018-08-17T08:30:33.629Z,23.15
2018-08-17T08:31:33.603Z,23.15
2018-08-17T08:32:33.585Z,23.16
2018-08-17T08:33:33.690Z,23.15
2018-08-17T08:34:33.567Z,23.15
2018-08-17T08:35:33.631Z,23.16
2018-08-17T08:36:33.654Z,23.16
2018-08-17T08:37:33.484Z,23.16
2018-08-17T08:38:33.597Z,23.17
2018-08-17T08:39:33.568Z,23.16
2018-08-17T08:40:33.584Z,23.17
2018-08-17T08:41:33.831Z,23.15
2018-08-17T08:42:33.667Z,23.16
2018-08-17T08:43:33.680Z,23.15
2018-08-17T08:44:33.649Z,23.15
2018-08-17T08:45:33.620Z,23.15
2018-08-17T08:46:34.176Z,23.16
2018-08-17T08:47:33.555Z,23.15
2018-08-17T08:48:33.631Z,23.16
2018-08-17T08:49:33.547Z,23.16
2018-08-17T08:50:33.584Z,23.16
2018-08-17T08:51:33.714Z,23.16
2018-08-17T08:52:33.724Z,23.16
2018-08-17T08:53:33.671Z,23.15
2018-08-17T08:54:33.568Z,23.15
2018-08-17T08:55:33.559Z,23.15
2018-08-17T08:56:33.643Z,23.15
2018-08-17T08:57:33.506Z,23.15
2018-08-17T08:58:33.671Z,23.14
2018-08-17T08:59:33.635Z,23.15
2018-08-17T09:00:33.510Z,23.15
2018-08-17T09:01:33.465Z,23.15
2018-08-17T09:02:33.525Z,23.15
2018-08-17T09:03:33.720Z,23.15
2018-08-17T09:04:33.551Z,23.15
2018-08-17T09:05:33.555Z,23.15
2018-08-17T09:06:33.496Z,23.15
2018-08-17T09:07:33.625Z,23.15
2018-08-17T09:08:33.586Z,23.15
2018-08-17T09:09:33.757Z,23.16
2018-08-17T09:10:33.668Z,23.16
2018-08-17T09:11:33.465Z,23.15
2018-08-17T09:12:33.604Z,23.15
2018-08-17T09:13:33.553Z,23.15
2018-08-17T09:14:33.543Z,23.16
2018-08-17T09:15:33.613Z,23.15
2018-08-17T09:16:33.604Z,23.15
2018-08-17T09:17:33.550Z,23.15
2018-08-17T09:18:33.775Z,23.15
2018-08-17T09:19:33.737Z,23.15
2018-08-17T09:20:33.587Z,23.15
2018-08-17T09:21:33.696Z,23.15
2018-08-17T09:22:33.553Z,23.16
2018-08-17T09:23:33.713Z,23.15
2018-08-17T09:24:33.630Z,23.15
2018-08-17T09:25:33.839Z,23.16
2018-08-17T09:26:33.740Z,23.16
2018-08-17T09:27:33.612Z,23.16
2018-08-17T09:28:33.616Z,23.16
2018-08-17T09:29:33.444Z,23.15
2018-08-17T09:30:33.497Z,23.16
2018-08-17T09:31:33.684Z,23.15
2018-08-17T09:32:33.669Z,23.15
2018-08-17T09:33:33.605Z,23.16
2018-08-17T09:34:33.622Z,23.15
2018-08-17T09:35:33.593Z,23.15
2018-08-17T09:36:33.710Z,23.16
2018-08-17T09:37:33.564Z,23.16
2018-08-17T09:38:33.756Z,23.15
2018-08-17T09:39:33.603Z,23.16
2018-08-17T09:40:33.579Z,23.15
2018-08-17T09:41:33.638Z,23.15
2018-08-17T09:42:33.432Z,23.16
2018-08-17T09:43:33.665Z,23.16
2018-08-17T09:44:33.612Z,23.16
2018-08-17T09:45:33.674Z,23.16
2018-08-17T09:46:33.627Z,23.16
2018-08-17T09:47:33.590Z,23.16
2018-08-17T09:48:33.526Z,23.15
2018-08-17T09:49:33.868Z,23.16
2018-08-17T09:50:33.679Z,23.16
2018-08-17T09:51:33.444Z,23.16
2018-08-17T09:52:33.673Z,23.16
2018-08-17T09:53:33.594Z,23.15
2018-08-17T09:54:33.432Z,23.16
2018-08-17T09:55:33.627Z,23.15
2018-08-17T09:56:33.740Z,23.16
2018-08-17T09:57:33.701Z,23.17
2018-08-17T09:58:33.672Z,23.16
2018-08-17T09:59:33.674Z,23.16
2018-08-17T10:00:33.644Z,23.16
2018-08-17T10:01:33.640Z,23.16
2018-08-17T10:02:33.441Z,23.16
2018-08-17T10:03:33.633Z,23.17
2018-08-17T10:04:33.675Z,23.17
2018-08-17T10:05:33.558Z,23.16
2018-08-17T10:06:33.739Z,23.17
2018-08-17T10:07:33.732Z,23.17
2018-08-17T10:08:33.688Z,23.16
2018-08-17T10:09:34.586Z,23.17
2018-08-17T10:10:33.759Z,23.17
2018-08-17T10:11:33.472Z,23.17
2018-08-17T10:12:33.582Z,23.17
2018-08-17T10:13:33.545Z,23.17
2018-08-17T10:14:33.623Z,23.16
2018-08-17T10:15:33.520Z,23.17
2018-08-17T10:16:33.625Z,23.16
2018-08-17T10:17:33.753Z,23.17
2018-08-17T10:18:33.704Z,23.17
2018-08-17T10:19:33.596Z,23.17
2018-08-17T10:20:33.408Z,23.16
2018-08-17T10:21:34.034Z,23.16
2018-08-17T10:22:33.710Z,23.16
2018-08-17T10:23:33.644Z,23.16
2018-08-17T10:24:33.645Z,23.16
2018-08-17T10:25:33.709Z,23.16
2018-08-17T10:26:33.406Z,23.16
2018-08-17T10:27:33.565Z,23.16
2018-08-17T10:28:33.558Z,23.16
2018-08-17T10:29:33.388Z,23.16
2018-08-17T10:30:33.438Z,23.15
2018-08-17T10:31:33.604Z,23.16
2018-08-17T10:32:33.705Z,23.17
2018-08-17T10:33:33.604Z,23.17
2018-08-17T10:34:33.498Z,23.16
2018-08-17T10:35:33.466Z,23.17
2018-08-17T10:36:33.766Z,23.16
2018-08-17T10:37:33.511Z,23.2
2018-08-17T10:38:33.731Z,23.22
2018-08-17T10:39:33.597Z,23.23
2018-08-17T10:40:33.830Z,23.24
2018-08-17T10:41:33.670Z,23.24
2018-08-17T10:42:33.791Z,23.26
2018-08-17T10:43:34.029Z,23.27
2018-08-17T10:44:33.711Z,23.27
2018-08-17T10:45:33.898Z,23.29
2018-08-17T10:46:34.137Z,23.32
2018-08-17T10:47:33.505Z,23.28
2018-08-17T10:48:33.801Z,23.3
2018-08-17T10:49:33.766Z,23.27
2018-08-17T10:50:33.512Z,23.26
2018-08-17T10:51:33.900Z,23.26
2018-08-17T10:52:33.682Z,23.25
2018-08-17T10:53:33.547Z,23.25
2018-08-17T10:54:33.644Z,23.25
2018-08-17T10:55:33.724Z,23.24
2018-08-17T10:56:33.421Z,23.24
2018-08-17T10:57:33.927Z,23.22
2018-08-17T10:58:33.968Z,23.24
2018-08-17T10:59:33.667Z,23.22
2018-08-17T11:00:34.152Z,23.23
2018-08-17T11:01:33.603Z,23.22
2018-08-17T11:02:33.715Z,23.22
2018-08-17T11:03:33.467Z,23.22
2018-08-17T11:04:33.731Z,23.22
2018-08-17T11:05:33.570Z,23.22
2018-08-17T11:06:33.666Z,23.22
2018-08-17T11:07:33.861Z,23.22
2018-08-17T11:08:33.596Z,23.21
2018-08-17T11:09:33.758Z,23.21
2018-08-17T11:10:33.652Z,23.21
2018-08-17T11:11:33.632Z,23.21
2018-08-17T11:12:33.645Z,23.22
2018-08-17T11:13:33.496Z,23.22
2018-08-17T11:14:33.380Z,23.21
2018-08-17T11:15:33.407Z,23.22
2018-08-17T11:16:33.598Z,23.21
2018-08-17T11:17:33.853Z,23.21
2018-08-17T11:18:33.668Z,23.21
2018-08-17T11:19:33.664Z,23.21
2018-08-17T11:20:33.648Z,23.21
2018-08-17T11:21:33.736Z,23.21
2018-08-17T11:22:33.731Z,23.21
2018-08-17T11:23:33.605Z,23.2
2018-08-17T11:24:33.594Z,23.2
2018-08-17T11:25:33.617Z,23.21
2018-08-17T11:26:33.898Z,23.2
2018-08-17T11:27:33.684Z,23.2
2018-08-17T11:28:34.218Z,23.21
2018-08-17T11:29:33.470Z,23.21
2018-08-17T11:30:33.862Z,23.2
2018-08-17T11:31:33.571Z,23.2
2018-08-17T11:32:33.514Z,23.2
2018-08-17T11:33:33.512Z,23.2
2018-08-17T11:34:33.396Z,23.2
2018-08-17T11:35:33.748Z,23.21
2018-08-17T11:36:33.568Z,23.21
2018-08-17T11:37:34.070Z,23.21
2018-08-17T11:38:33.572Z,23.2
2018-08-17T11:39:33.578Z,23.21
2018-08-17T11:40:33.585Z,23.21
2018-08-17T11:41:33.732Z,23.2
2018-08-17T11:42:33.470Z,23.2
2018-08-17T11:43:33.649Z,23.21
2018-08-17T11:44:33.827Z,23.21
2018-08-17T11:45:34.003Z,23.22
2018-08-17T11:46:33.449Z,23.23
2018-08-17T11:47:33.455Z,23.23
2018-08-17T11:48:33.507Z,23.22
2018-08-17T11:49:33.485Z,23.21
2018-08-17T11:50:33.842Z,23.21
2018-08-17T11:51:33.694Z,23.2
2018-08-17T11:52:33.398Z,23.2
2018-08-17T11:53:33.707Z,23.2
2018-08-17T11:54:33.547Z,23.2
2018-08-17T11:55:33.719Z,23.2
2018-08-17T11:56:33.624Z,23.21
2018-08-17T11:57:33.643Z,23.2
2018-08-17T11:58:33.711Z,23.21
2018-08-17T11:59:33.877Z,23.2
2018-08-17T12:00:33.852Z,23.2
2018-08-17T12:01:33.367Z,23.19
2018-08-17T12:02:33.620Z,23.2
2018-08-17T12:03:33.596Z,23.2
2018-08-17T12:04:33.797Z,23.21
2018-08-17T12:05:34.126Z,23.21
2018-08-17T12:06:33.863Z,23.2
2018-08-17T12:07:33.816Z,23.2
2018-08-17T12:08:33.712Z,23.2
2018-08-17T12:09:33.701Z,23.21
2018-08-17T12:10:33.453Z,23.2
2018-08-17T12:11:33.618Z,23.22
2018-08-17T12:12:33.646Z,23.24
2018-08-17T12:13:33.663Z,23.24
2018-08-17T12:14:33.377Z,23.26
2018-08-17T12:15:33.537Z,23.24
2018-08-17T12:16:33.660Z,23.23
2018-08-17T12:17:33.833Z,23.22
2018-08-17T12:18:33.661Z,23.23
2018-08-17T12:19:33.669Z,23.23
2018-08-17T12:20:33.691Z,23.23
2018-08-17T12:21:33.571Z,23.23
2018-08-17T12:22:33.743Z,23.23
2018-08-17T12:23:33.606Z,23.23
2018-08-17T12:24:34.032Z,23.22
2018-08-17T12:25:33.618Z,23.22
2018-08-17T12:26:33.958Z,23.24
2018-08-17T12:27:33.574Z,23.24
2018-08-17T12:28:33.502Z,23.26
2018-08-17T12:29:33.719Z,23.26
2018-08-17T12:30:33.646Z,23.27
2018-08-17T12:31:33.653Z,23.25
2018-08-17T12:32:33.387Z,23.24
2018-08-17T12:33:33.687Z,23.26
2018-08-17T12:34:33.700Z,23.21
2018-08-17T12:35:33.949Z,23.23
2018-08-17T12:36:33.428Z,23.21
2018-08-17T12:37:33.388Z,23.21
2018-08-17T12:38:33.650Z,23.2
2018-08-17T12:39:34.117Z,23.2
2018-08-17T12:40:33.685Z,23.17
2018-08-17T12:41:33.447Z,23.15
2018-08-17T12:42:33.541Z,23.18
2018-08-17T12:43:33.597Z,23.17
2018-08-17T12:44:33.783Z,23.18
2018-08-17T12:45:33.687Z,23.2
2018-08-17T12:46:33.562Z,23.2
2018-08-17T12:47:33.771Z,23.19
2018-08-17T12:48:33.396Z,23.19
2018-08-17T12:49:33.560Z,23.2
2018-08-17T12:50:33.805Z,23.2
2018-08-17T12:51:33.435Z,23.2
2018-08-17T12:52:33.621Z,23.2
2018-08-17T12:53:33.723Z,23.2
2018-08-17T12:54:33.507Z,23.22
2018-08-17T12:55:33.593Z,23.24
2018-08-17T12:56:33.495Z,23.24